Fulton, Ohio
Current Conditions -  °F | °C
As of 8:53 PM on Friday 19 Dec 2014 (Local Time) from KMNN Reporting Station
Overcast Overcast  
Wind Chill: 29°   Ceiling: 1700
Heat Index: 29°   Visibility: 8mi
Dew Point: 22°   Wind: 3mph
Humidity: 75%   Direction: 310°NW
Pressure: 30.28"   Gusts: NA
Location:  40.46°N, 82.83°W
Report Text: KMNN 200153Z AUTO 31003KT 8SM OVC017 M02/M06 A3028 RMK AO2 SLP266 T10171056 TSNO
Loading
Personal Weather Stations






























Interactive Weather Map New forecast layout! Learn more

10-Day Weather Forecast

Advertisements
Track Severe Weather on mobile